Time;durP1;ratioP1;P1;durP2;ratioP2;P2;SDS_P1;SDS_P2;PMS_P1;PMS_P2;Temp;Humidity;BMP_temperature;BMP_pressure;BME280_temperature;BME280_humidity;BME280_pressure;Samples;Min_cycle;Max_cycle;Signal;HPM_P1;HPM_P2
2021/05/24 00:01:08;;;;;;;5.60;4.53;;;;;;;15.72;100.00;100853.22;1650952;86;21913;-64
2021/05/24 00:03:35;;;;;;;8.93;5.28;;;;;;;15.72;100.00;100853.22;1677642;85;21082;-64
2021/05/24 00:06:01;;;;;;;10.08;5.30;;;;;;;15.74;100.00;100863.96;1677767;85;21046;-65
2021/05/24 00:08:28;;;;;;;7.60;5.53;;;;;;;15.74;100.00;100863.47;1630333;87;21129;-64
2021/05/24 00:10:54;;;;;;;8.90;5.58;;;;;;;15.79;100.00;100871.80;1658925;85;21704;-64
2021/05/24 00:13:23;;;;;;;8.25;5.72;;;;;;;15.83;100.00;100861.23;1650689;86;21066;-65
2021/05/24 00:15:54;;;;;;;13.05;5.37;;;;;;;15.86;100.00;100852.95;1677820;85;21324;-65
2021/05/24 00:18:20;;;;;;;7.90;5.28;;;;;;;15.88;100.00;100844.27;1650719;85;21129;-64
2021/05/24 00:20:54;;;;;;;9.50;5.50;;;;;;;15.90;100.00;100836.97;1679105;85;21084;-66
2021/05/24 00:23:22;;;;;;;8.35;5.30;;;;;;;15.90;100.00;100824.31;1660196;86;21106;-65
2021/05/24 00:25:49;;;;;;;9.53;5.12;;;;;;;15.90;100.00;100828.36;1659810;84;21168;-64
2021/05/24 00:28:16;;;;;;;10.68;5.65;;;;;;;15.88;100.00;100821.28;1667058;85;21111;-64
2021/05/24 00:30:47;;;;;;;9.98;5.62;;;;;;;15.85;100.00;100813.36;1680790;85;22123;-65
2021/05/24 00:33:13;;;;;;;10.05;5.37;;;;;;;15.83;100.00;100812.57;1681317;85;21630;-64
2021/05/24 00:35:41;;;;;;;8.68;6.45;;;;;;;15.81;100.00;100819.90;1681229;85;21133;-64
2021/05/24 00:38:10;;;;;;;8.75;5.87;;;;;;;15.81;100.00;100830.71;1680847;85;21101;-65
2021/05/24 00:40:37;;;;;;;9.63;6.42;;;;;;;15.81;100.00;100821.25;1681103;84;21077;-63
2021/05/24 00:43:06;;;;;;;8.33;5.15;;;;;;;15.81;100.00;100836.12;1681345;85;21752;-64
2021/05/24 00:45:33;;;;;;;7.17;5.62;;;;;;;15.81;100.00;100823.95;1681506;85;21597;-64
2021/05/24 00:48:00;;;;;;;6.83;5.40;;;;;;;15.81;100.00;100821.25;1677426;84;21268;-64
2021/05/24 00:50:26;;;;;;;9.23;5.03;;;;;;;15.81;100.00;100817.20;1657897;86;21750;-64
2021/05/24 00:52:53;;;;;;;9.28;5.20;;;;;;;15.82;100.00;100821.64;1658224;86;21598;-64
2021/05/24 00:55:20;;;;;;;11.60;5.45;;;;;;;15.84;100.00;100818.38;1657419;84;22344;-65
2021/05/24 00:57:46;;;;;;;7.55;5.70;;;;;;;15.84;100.00;100818.38;1630138;86;21579;-65
2021/05/24 01:00:30;;;;;;;11.28;5.80;;;;;;;15.85;100.00;100815.56;1650439;86;21599;-65
2021/05/24 01:02:58;;;;;;;10.18;5.78;;;;;;;15.88;100.00;100823.99;1676972;83;21634;-64
2021/05/24 01:05:25;;;;;;;7.65;5.75;;;;;;;15.87;100.00;100824.95;1677180;85;21098;-64
2021/05/24 01:07:52;;;;;;;7.87;5.37;;;;;;;15.89;100.00;100825.77;1649970;84;21156;-65
2021/05/24 01:10:19;;;;;;;9.08;5.65;;;;;;;15.90;100.00;100834.27;1689782;83;21542;-64
2021/05/24 01:12:46;;;;;;;7.78;5.30;;;;;;;15.92;100.00;100828.30;1717557;82;21551;-64
2021/05/24 01:15:13;;;;;;;9.73;5.90;;;;;;;15.93;100.00;100834.09;1689434;84;22391;-64
2021/05/24 01:17:41;;;;;;;6.58;5.47;;;;;;;15.93;100.00;100826.48;1685546;83;21149;-64
2021/05/24 01:20:09;;;;;;;9.83;5.40;;;;;;;15.92;100.00;100833.70;1629889;86;21077;-64
2021/05/24 01:22:38;;;;;;;7.25;5.33;;;;;;;15.93;100.00;100823.28;1650025;86;21205;-64
2021/05/24 01:25:06;;;;;;;7.95;5.62;;;;;;;15.92;100.00;100814.77;1691982;84;21118;-64
2021/05/24 01:27:33;;;;;;;11.88;5.62;;;;;;;15.91;100.00;100823.84;1704848;82;21160;-64
2021/05/24 01:30:00;;;;;;;12.03;6.12;;;;;;;15.91;100.00;100811.68;1705213;84;21619;-65
2021/05/24 01:32:27;;;;;;;8.88;6.65;;;;;;;15.89;100.00;100805.49;1705031;84;21108;-64
2021/05/24 01:34:54;;;;;;;8.73;5.37;;;;;;;15.88;100.00;100799.66;1705177;84;21141;-65
2021/05/24 01:37:21;;;;;;;6.80;5.40;;;;;;;15.87;100.00;100793.86;1705232;82;21041;-64
2021/05/24 01:39:48;;;;;;;9.33;5.70;;;;;;;15.85;100.00;100778.21;1705275;82;21062;-64
2021/05/24 01:42:16;;;;;;;7.75;5.87;;;;;;;15.83;100.00;100781.48;1705088;83;21115;-65
2021/05/24 01:44:43;;;;;;;7.05;5.65;;;;;;;15.83;100.00;100780.13;1706478;82;21121;-64
2021/05/24 01:47:09;;;;;;;6.87;5.53;;;;;;;15.81;100.00;100782.91;1678585;84;21122;-64
2021/05/24 01:49:37;;;;;;;10.75;6.25;;;;;;;15.81;100.00;100784.76;1654667;86;21160;-64
2021/05/24 01:52:06;;;;;;;14.63;6.40;;;;;;;15.81;100.00;100795.57;1654509;86;22252;-64
2021/05/24 01:54:33;;;;;;;13.30;6.35;;;;;;;15.81;100.00;100796.92;1658191;84;21142;-64
2021/05/24 01:57:00;;;;;;;8.68;5.58;;;;;;;15.81;100.00;100794.22;1627951;86;21055;-65
2021/05/24 01:59:27;;;;;;;9.08;5.47;;;;;;;15.81;100.00;100800.48;1651355;86;21698;-63
2021/05/24 02:01:54;;;;;;;8.15;5.62;;;;;;;15.80;100.00;100782.98;1639427;87;21491;-64
2021/05/24 02:04:21;;;;;;;9.08;6.05;;;;;;;15.80;100.00;100785.69;1650984;86;21680;-62
2021/05/24 02:06:49;;;;;;;8.45;5.55;;;;;;;15.79;100.00;100782.13;1654552;85;21098;-62
2021/05/24 02:09:15;;;;;;;5.85;5.20;;;;;;;15.78;100.00;100774.09;1682881;85;21085;-60
2021/05/24 02:11:43;;;;;;;10.10;5.72;;;;;;;15.76;100.00;100766.94;1665424;85;21139;-61
2021/05/24 02:14:10;;;;;;;8.10;6.00;;;;;;;15.76;100.00;100769.64;1656904;85;21073;-62
2021/05/24 02:16:45;;;;;;;8.30;5.33;;;;;;;15.79;100.00;100778.07;1656260;86;21094;-61
2021/05/24 02:19:13;;;;;;;9.05;5.40;;;;;;;15.80;100.00;100782.98;1663470;86;21097;-62
2021/05/24 02:21:40;;;;;;;7.97;5.67;;;;;;;15.81;100.00;100785.61;1663311;86;21554;-62
2021/05/24 02:24:09;;;;;;;8.05;5.37;;;;;;;15.83;100.00;100782.84;1662996;85;21125;-62
2021/05/24 02:26:38;;;;;;;10.20;5.50;;;;;;;15.85;100.00;100787.67;1663414;86;21141;-61
2021/05/24 02:29:05;;;;;;;9.25;5.10;;;;;;;15.86;100.00;100793.47;1663430;86;21844;-62
2021/05/24 02:31:34;;;;;;;8.05;5.30;;;;;;;15.87;100.00;100801.48;1663391;86;21090;-62
2021/05/24 02:34:03;;;;;;;9.48;5.28;;;;;;;15.89;100.00;100806.34;1663416;86;21516;-63
2021/05/24 02:36:30;;;;;;;8.18;5.37;;;;;;;15.92;100.00;100803.95;1663659;84;21082;-64
2021/05/24 02:38:57;;;;;;;7.87;4.65;;;;;;;15.96;100.00;100809.58;1664006;86;21122;-64
2021/05/24 02:41:24;;;;;;;5.17;4.20;;;;;;;15.99;100.00;100813.45;1659567;86;21640;-64
2021/05/24 02:43:50;;;;;;;5.87;4.40;;;;;;;16.06;100.00;100813.13;1649696;86;21145;-64
2021/05/24 02:46:17;;;;;;;6.50;4.65;;;;;;;16.12;100.00;100829.00;1615237;88;21285;-61
2021/05/24 02:48:43;;;;;;;8.43;4.40;;;;;;;16.18;100.00;100842.16;1614970;88;21788;-62
2021/05/24 02:51:10;;;;;;;7.97;4.53;;;;;;;16.23;100.00;100840.55;1615088;88;21134;-61
2021/05/24 02:53:41;;;;;;;8.25;4.67;;;;;;;16.26;100.00;100841.27;1614883;88;21758;-62
2021/05/24 02:56:08;;;;;;;8.23;4.72;;;;;;;16.29;100.00;100851.90;1614560;88;21107;-60
2021/05/24 02:58:34;;;;;;;8.45;4.42;;;;;;;16.32;100.00;100856.24;1632553;86;21098;-61
2021/05/24 03:01:00;;;;;;;5.95;4.40;;;;;;;16.33;100.00;100845.34;1666538;86;21106;-61
2021/05/24 03:03:29;;;;;;;8.55;4.47;;;;;;;16.35;100.00;100857.41;1637779;86;21114;-61
2021/05/24 03:05:55;;;;;;;6.97;4.35;;;;;;;16.37;100.00;100872.22;1666226;86;21103;-62
2021/05/24 03:08:23;;;;;;;7.35;4.45;;;;;;;16.40;100.00;100867.98;1637337;87;21123;-61
2021/05/24 03:10:50;;;;;;;7.72;4.55;;;;;;;16.42;100.00;100863.34;1679973;83;21871;-62
2021/05/24 03:13:16;;;;;;;8.18;4.40;;;;;;;16.44;100.00;100883.07;1696127;84;21132;-61
2021/05/24 03:15:43;;;;;;;8.43;4.37;;;;;;;16.46;100.00;100882.50;1696834;83;21171;-62
2021/05/24 03:18:09;;;;;;;6.60;4.15;;;;;;;16.50;100.00;100892.67;1696478;84;21172;-61
2021/05/24 03:20:36;;;;;;;8.28;4.12;;;;;;;16.51;100.00;100893.95;1696691;84;21160;-62
2021/05/24 03:23:03;;;;;;;4.35;3.92;;;;;;;16.53;100.00;100901.50;1696790;84;21109;-63
2021/05/24 03:25:30;;;;;;;8.10;4.12;;;;;;;16.57;100.00;100903.06;1696759;83;21140;-61
2021/05/24 03:27:57;;;;;;;10.48;4.08;;;;;;;16.61;100.00;100889.73;1696933;84;21564;-62
2021/05/24 03:30:23;;;;;;;7.00;3.80;;;;;;;16.67;100.00;100887.16;1696395;83;21713;-62
2021/05/24 03:32:50;;;;;;;5.33;3.85;;;;;;;16.73;100.00;100886.79;1696325;83;21127;-62
2021/05/24 03:35:16;;;;;;;4.83;3.85;;;;;;;16.84;100.00;100880.74;1696520;84;21088;-62
2021/05/24 03:37:43;;;;;;;6.53;3.80;;;;;;;16.97;100.00;100881.37;1696793;83;21097;-62
2021/05/24 03:40:11;;;;;;;6.92;3.87;;;;;;;17.12;100.00;100896.72;1706535;83;21116;-61
2021/05/24 03:42:38;;;;;;;4.30;3.77;;;;;;;17.28;100.00;100902.09;1720595;82;21136;-61
2021/05/24 03:45:09;;;;;;;7.17;4.25;;;;;;;17.46;100.00;100896.02;1699638;83;21113;-61
2021/05/24 03:47:36;;;;;;;12.60;3.85;;;;;;;17.62;100.00;100905.92;1693304;84;21120;-60
2021/05/24 03:50:04;;;;;;;7.67;3.83;;;;;;;17.75;99.75;100893.82;1666522;86;21071;-62
2021/05/24 03:52:31;;;;;;;5.05;3.65;;;;;;;17.83;98.47;100891.98;1666973;86;21292;-61
2021/05/24 03:54:57;;;;;;;6.40;4.00;;;;;;;17.88;97.93;100888.48;1637891;87;23215;-62
2021/05/24 03:57:24;;;;;;;10.65;4.70;;;;;;;17.89;97.44;100887.52;1664963;84;21575;-61
2021/05/24 03:59:52;;;;;;;6.42;3.67;;;;;;;17.88;97.22;100881.70;1654381;86;21588;-60
2021/05/24 04:02:19;;;;;;;6.72;3.92;;;;;;;17.91;96.83;100889.64;1656226;86;21114;-60
2021/05/24 04:04:46;;;;;;;9.13;3.87;;;;;;;17.92;96.52;100879.67;1656526;85;21086;-61
2021/05/24 04:07:20;;;;;;;12.00;4.35;;;;;;;17.93;96.40;100884.13;1667165;84;21121;-61
2021/05/24 04:09:42;;;;;;;6.40;3.83;;;;;;;17.93;96.20;100881.42;1666100;82;21153;-61
2021/05/24 04:12:09;;;;;;;7.47;4.87;;;;;;;17.92;96.05;100887.31;1660097;86;21109;-61
2021/05/24 04:14:39;;;;;;;8.78;3.92;;;;;;;17.93;96.07;100901.27;1659996;86;21114;-61
2021/05/24 04:17:05;;;;;;;6.33;3.98;;;;;;;17.98;96.05;100915.39;1672669;83;21066;-60
2021/05/24 04:19:32;;;;;;;6.62;4.05;;;;;;;18.06;95.87;100942.57;1690234;83;21110;-61
2021/05/24 04:21:59;;;;;;;7.22;3.65;;;;;;;18.14;95.53;100953.33;1690230;83;21071;-62
2021/05/24 04:24:25;;;;;;;7.72;4.15;;;;;;;18.25;95.38;100973.46;1690462;84;21140;-65
2021/05/24 04:26:52;;;;;;;5.30;4.10;;;;;;;18.40;95.11;100960.73;1691049;84;21071;-65
2021/05/24 04:29:18;;;;;;;7.03;4.22;;;;;;;18.59;94.37;100961.28;1691246;84;21518;-66
2021/05/24 04:31:45;;;;;;;8.58;4.08;;;;;;;18.79;93.62;100967.24;1691174;84;22316;-65
2021/05/24 04:34:12;;;;;;;7.45;3.87;;;;;;;18.96;92.07;100955.75;1691140;84;21674;-65
2021/05/24 04:36:38;;;;;;;5.60;3.80;;;;;;;19.09;91.21;100961.25;1688958;84;21093;-64
2021/05/24 04:39:07;;;;;;;8.90;3.50;;;;;;;19.13;90.24;100981.33;1690866;84;21250;-64
2021/05/24 04:41:33;;;;;;;9.85;3.83;;;;;;;19.11;89.97;100992.77;1690463;83;21141;-64
2021/05/24 04:44:11;;;;;;;6.33;3.62;;;;;;;19.06;89.96;100996.28;1680405;84;21145;-64
2021/05/24 04:46:29;;;;;;;4.58;3.25;;;;;;;18.95;90.33;100992.04;1669587;84;21531;-64
2021/05/24 04:48:55;;;;;;;6.12;4.05;;;;;;;18.86;90.08;101022.05;1657077;86;21401;-61
2021/05/24 04:51:22;;;;;;;3.67;3.00;;;;;;;18.79;90.57;101030.19;1656404;86;21010;-62
2021/05/24 04:53:48;;;;;;;7.80;2.58;;;;;;;18.70;90.36;101035.77;1656368;85;21256;-63
2021/05/24 04:56:15;;;;;;;7.60;3.20;;;;;;;18.61;88.56;101053.02;1656255;85;21856;-65
2021/05/24 04:58:41;;;;;;;3.98;2.90;;;;;;;18.55;87.36;101046.63;1656187;85;21578;-64
2021/05/24 05:01:10;;;;;;;6.03;3.60;;;;;;;18.45;88.30;101043.63;1656481;86;20920;-62
2021/05/24 05:03:36;;;;;;;10.95;4.00;;;;;;;18.32;89.67;101043.54;1656328;86;21722;-62
2021/05/24 05:06:04;;;;;;;7.92;4.35;;;;;;;18.20;91.16;101044.30;1674379;84;21039;-62
2021/05/24 05:08:31;;;;;;;6.58;3.85;;;;;;;18.09;91.96;101037.33;1664130;83;21157;-62
2021/05/24 05:10:57;;;;;;;7.20;4.25;;;;;;;18.03;92.59;101039.46;1658419;86;21137;-63
2021/05/24 05:13:26;;;;;;;5.08;3.33;;;;;;;17.95;93.02;101039.02;1658989;84;21172;-61
2021/05/24 05:15:52;;;;;;;8.30;4.17;;;;;;;17.87;93.65;101037.27;1660244;86;21109;-63
2021/05/24 05:18:19;;;;;;;6.42;3.80;;;;;;;17.79;94.19;101025.99;1659760;86;21078;-62
2021/05/24 05:20:47;;;;;;;8.95;3.55;;;;;;;17.77;94.89;101024.75;1663530;84;21129;-63
2021/05/24 05:23:14;;;;;;;5.08;3.08;;;;;;;17.76;94.72;101008.09;1686073;83;21570;-64
2021/05/24 05:25:41;;;;;;;6.33;3.42;;;;;;;17.74;94.00;101013.59;1659298;84;21972;-66
2021/05/24 05:28:07;;;;;;;4.12;3.12;;;;;;;17.74;93.50;101001.89;1667186;84;21097;-64
2021/05/24 05:30:34;;;;;;;7.40;3.17;;;;;;;17.73;93.10;100999.66;1678610;84;21574;-66
2021/05/24 05:33:00;;;;;;;8.08;3.25;;;;;;;17.71;93.11;101011.08;1707298;83;21527;-66
2021/05/24 05:35:27;;;;;;;6.28;2.80;;;;;;;17.72;93.31;101029.09;1679580;84;21555;-66
2021/05/24 05:37:54;;;;;;;7.30;2.60;;;;;;;17.72;93.17;101022.31;1707869;83;21093;-65
2021/05/24 05:40:20;;;;;;;4.65;2.67;;;;;;;17.71;92.86;101012.43;1697059;84;21100;-65
2021/05/24 05:42:48;;;;;;;4.17;2.67;;;;;;;17.68;92.41;101001.78;1697568;84;21128;-65
2021/05/24 05:45:16;;;;;;;5.05;2.72;;;;;;;17.64;91.69;100993.45;1689749;84;21746;-67
2021/05/24 05:47:43;;;;;;;4.15;2.52;;;;;;;17.57;91.26;100977.14;1678738;84;21125;-66
2021/05/24 05:50:12;;;;;;;6.83;2.47;;;;;;;17.49;91.65;100952.36;1675903;84;21360;-66
2021/05/24 05:52:39;;;;;;;8.98;2.92;;;;;;;17.42;92.39;100958.63;1668255;84;21526;-65
2021/05/24 05:55:07;;;;;;;5.83;2.87;;;;;;;17.38;92.64;100953.02;1648662;85;21940;-66
2021/05/24 05:57:34;;;;;;;5.58;2.92;;;;;;;17.36;92.37;100961.25;1679262;85;21131;-66
2021/05/24 06:00:04;;;;;;;5.35;2.50;;;;;;;17.44;92.58;100968.42;1677321;83;21729;-66
2021/05/24 06:02:32;;;;;;;4.70;2.80;;;;;;;17.54;92.22;100967.85;1676934;82;21603;-62
2021/05/24 06:04:59;;;;;;;2.90;2.25;;;;;;;17.66;91.48;100986.56;1681804;82;21158;-62
2021/05/24 06:07:26;;;;;;;4.70;3.08;;;;;;;17.76;90.72;100995.39;1676291;83;21142;-64
2021/05/24 06:09:54;;;;;;;5.50;3.15;;;;;;;17.88;90.63;101001.04;1654960;85;21145;-63
2021/05/24 06:12:24;;;;;;;4.17;2.75;;;;;;;18.04;90.63;101014.55;1645968;85;21070;-62
2021/05/24 06:14:51;;;;;;;5.40;3.20;;;;;;;18.20;90.20;101024.45;1657458;86;21424;-64
2021/05/24 06:17:19;;;;;;;3.67;2.80;;;;;;;18.33;89.66;101043.04;1629360;86;21138;-62
2021/05/24 06:19:46;;;;;;;5.67;2.77;;;;;;;18.48;89.21;101053.43;1673148;83;21093;-62
2021/05/24 06:22:13;;;;;;;7.03;3.30;;;;;;;18.60;88.89;101065.35;1634859;86;21765;-61
2021/05/24 06:24:39;;;;;;;5.47;3.00;;;;;;;18.68;88.33;101071.15;1654264;84;21602;-62
2021/05/24 06:27:07;;;;;;;5.65;3.12;;;;;;;18.79;87.97;101075.89;1649121;85;21112;-63
2021/05/24 06:29:34;;;;;;;5.33;2.92;;;;;;;18.94;87.78;101086.74;1642218;86;21233;-62
2021/05/24 06:32:03;;;;;;;7.87;2.62;;;;;;;19.07;86.69;101089.56;1682903;83;21062;-62
2021/05/24 06:34:33;;;;;;;5.62;3.20;;;;;;;19.16;85.73;101093.91;1671310;85;21240;-62
2021/05/24 06:37:00;;;;;;;6.55;2.80;;;;;;;19.29;85.00;101094.43;1659204;84;21094;-62
2021/05/24 06:39:27;;;;;;;8.73;3.17;;;;;;;19.41;83.85;101099.06;1659302;84;21104;-62
2021/05/24 06:41:54;;;;;;;5.65;2.75;;;;;;;19.54;83.03;101106.38;1661885;84;21583;-62
2021/05/24 06:44:21;;;;;;;6.53;3.25;;;;;;;19.67;82.98;101099.14;1662843;84;21344;-62
2021/05/24 06:46:50;;;;;;;10.30;2.92;;;;;;;19.86;82.77;101105.54;1668879;84;21168;-64
2021/05/24 06:49:17;;;;;;;6.95;2.83;;;;;;;20.09;82.25;101105.83;1669166;84;21138;-63
2021/05/24 06:51:44;;;;;;;8.30;2.75;;;;;;;20.35;81.23;101109.06;1663668;84;21141;-62
2021/05/24 06:54:10;;;;;;;7.03;2.98;;;;;;;20.54;79.13;101117.67;1657408;85;21165;-63
2021/05/24 06:56:37;;;;;;;10.72;3.50;;;;;;;20.72;78.09;101118.70;1681954;83;21198;-64
2021/05/24 06:59:05;;;;;;;5.92;2.77;;;;;;;20.84;77.39;101116.45;1677884;83;21601;-65
2021/05/24 07:01:32;;;;;;;9.58;3.05;;;;;;;20.97;76.98;101122.39;1650254;85;21506;-65
2021/05/24 07:03:59;;;;;;;6.37;2.22;;;;;;;21.17;76.88;101127.24;1679595;83;21051;-65
2021/05/24 07:06:25;;;;;;;2.08;1.45;;;;;;;21.32;73.41;101155.22;1677079;84;21485;-66
2021/05/24 07:08:53;;;;;;;1.90;1.30;;;;;;;21.45;69.19;101151.08;1676031;84;20955;-65
2021/05/24 07:11:20;;;;;;;2.72;1.50;;;;;;;21.54;67.99;101144.54;1684063;82;21117;-64
2021/05/24 07:13:47;;;;;;;1.35;1.10;;;;;;;21.61;67.90;101156.24;1674138;84;21132;-64
2021/05/24 07:16:14;;;;;;;2.62;1.40;;;;;;;21.66;66.04;101165.48;1683373;84;21080;-64
2021/05/24 07:18:41;;;;;;;4.92;1.35;;;;;;;21.70;66.73;101174.32;1648919;84;21173;-65
2021/05/24 07:21:08;;;;;;;2.22;1.00;;;;;;;21.84;66.56;101170.03;1687525;84;21117;-63
2021/05/24 07:23:35;;;;;;;4.75;1.00;;;;;;;22.04;64.86;101152.13;1667577;84;21183;-64
2021/05/24 07:26:02;;;;;;;1.07;0.90;;;;;;;22.17;63.24;101173.01;1678223;84;21057;-63
2021/05/24 07:28:28;;;;;;;1.80;1.20;;;;;;;22.11;63.05;101176.22;1650818;85;22232;-63
2021/05/24 07:30:55;;;;;;;3.87;0.78;;;;;;;22.03;62.61;101188.62;1684042;82;21764;-62
2021/05/24 07:33:22;;;;;;;1.85;1.00;;;;;;;21.94;63.38;101190.67;1646255;85;21170;-62
2021/05/24 07:35:48;;;;;;;5.03;0.90;;;;;;;21.85;64.23;101186.78;1688446;84;21315;-62
2021/05/24 07:38:15;;;;;;;9.35;0.75;;;;;;;21.83;64.67;101190.63;1677890;84;21413;-64
2021/05/24 07:40:42;;;;;;;1.65;0.90;;;;;;;21.89;64.13;101207.90;1683619;84;21109;-64
2021/05/24 07:43:08;;;;;;;5.25;0.80;;;;;;;21.92;63.07;101199.98;1671643;84;21114;-64
2021/05/24 07:45:37;;;;;;;4.00;0.70;;;;;;;21.92;62.82;101224.03;1669136;84;21539;-60
2021/05/24 07:48:10;;;;;;;7.30;0.90;;;;;;;21.84;61.12;101237.41;1673524;84;21689;-60
2021/05/24 07:50:36;;;;;;;2.77;0.80;;;;;;;21.75;61.02;101239.82;1684054;84;21060;-59
2021/05/24 07:53:05;;;;;;;4.97;0.88;;;;;;;21.71;60.48;101249.73;1680766;83;21098;-61
2021/05/24 07:55:33;;;;;;;6.75;0.90;;;;;;;21.65;60.25;101246.96;1648350;85;21156;-61
2021/05/24 07:58:02;;;;;;;3.50;0.75;;;;;;;21.59;60.14;101245.52;1659862;84;21439;-63
2021/05/24 08:00:28;;;;;;;3.33;0.80;;;;;;;21.59;60.43;101228.30;1666373;84;21649;-61
2021/05/24 08:02:55;;;;;;;4.10;0.70;;;;;;;21.63;60.57;101219.38;1663429;84;21110;-63
2021/05/24 08:05:21;;;;;;;3.67;0.70;;;;;;;21.68;60.67;101224.91;1707319;83;21145;-63
2021/05/24 08:07:48;;;;;;;1.50;0.70;;;;;;;21.74;60.58;101258.55;1701555;83;21648;-62
2021/05/24 08:10:16;;;;;;;1.70;0.90;;;;;;;21.65;60.16;101255.62;1693717;83;21108;-62
2021/05/24 08:12:45;;;;;;;2.50;0.70;;;;;;;21.44;60.18;101252.09;1694381;83;21629;-64
2021/05/24 08:15:18;;;;;;;1.57;0.70;;;;;;;21.29;61.88;101243.19;1696863;82;21164;-64
2021/05/24 08:17:45;;;;;;;0.65;0.50;;;;;;;21.24;62.11;101233.11;1708415;83;21050;-64
2021/05/24 08:20:16;;;;;;;2.27;0.60;;;;;;;21.26;61.75;101237.97;1698075;83;21485;-62
2021/05/24 08:22:44;;;;;;;3.27;0.85;;;;;;;21.33;62.19;101245.59;1634867;86;21602;-65
2021/05/24 08:25:13;;;;;;;1.62;0.70;;;;;;;21.50;63.01;101239.88;1696155;83;21636;-63
2021/05/24 08:27:43;;;;;;;2.90;1.25;;;;;;;21.64;60.81;101247.92;1634298;86;21095;-64
2021/05/24 08:30:13;;;;;;;3.22;0.98;;;;;;;21.68;60.40;101252.19;1681323;84;22284;-63
2021/05/24 08:32:43;;;;;;;7.85;1.40;;;;;;;21.67;59.30;101265.45;1650924;85;21255;-64
2021/05/24 08:35:15;;;;;;;3.95;0.85;;;;;;;21.65;60.26;101257.88;1726401;81;21112;-64
2021/05/24 08:37:43;;;;;;;3.47;0.78;;;;;;;21.74;60.72;101250.86;1704267;83;21370;-65
2021/05/24 08:40:12;;;;;;;1.57;0.60;;;;;;;21.83;58.22;101257.50;1691769;83;21140;-64
2021/05/24 08:42:42;;;;;;;0.75;0.60;;;;;;;21.85;55.68;101252.80;1629613;86;21640;-64
2021/05/24 08:45:09;;;;;;;1.80;1.47;;;;;;;21.79;54.90;101293.69;1654339;85;21062;-63
2021/05/24 08:47:35;;;;;;;3.83;1.00;;;;;;;21.71;56.23;101261.50;1648189;85;21214;-64
2021/05/24 08:50:04;;;;;;;6.50;1.15;;;;;;;21.71;56.56;101251.95;1659888;84;21606;-64
2021/05/24 08:52:30;;;;;;;2.22;0.60;;;;;;;21.74;56.15;101273.55;1662591;84;21184;-63
2021/05/24 08:54:57;;;;;;;1.35;0.80;;;;;;;21.82;55.19;101268.89;1662634;84;21161;-62
2021/05/24 08:57:24;;;;;;;2.87;0.85;;;;;;;21.92;55.88;101281.36;1659887;84;21154;-63
2021/05/24 08:59:51;;;;;;;1.47;0.70;;;;;;;21.97;55.34;101277.78;1664504;83;21132;-64
2021/05/24 09:02:21;;;;;;;4.28;1.27;;;;;;;22.00;54.53;101273.48;1664105;84;21184;-62
2021/05/24 09:04:49;;;;;;;3.67;0.78;;;;;;;21.97;55.03;101273.69;1659569;84;21164;-63
2021/05/24 09:07:17;;;;;;;2.33;0.70;;;;;;;21.90;53.75;101253.31;1662132;84;21128;-63
2021/05/24 09:10:01;;;;;;;1.57;0.50;;;;;;;21.87;51.89;101276.23;1666670;84;21178;-63
2021/05/24 09:12:32;;;;;;;2.35;0.70;;;;;;;21.85;52.78;101286.40;1667346;84;21049;-62
2021/05/24 09:15:08;;;;;;;3.23;0.73;;;;;;;21.82;53.95;101270.26;1665790;83;21127;-64
2021/05/24 09:17:43;;;;;;;2.90;0.70;;;;;;;21.77;53.63;101281.13;1663745;84;21114;-62
2021/05/24 09:20:42;;;;;;;2.70;0.68;;;;;;;21.73;54.58;101281.88;1663157;84;21070;-62
2021/05/24 09:23:33;;;;;;;6.17;0.72;;;;;;;21.70;54.04;101280.73;1657918;85;21174;-64
2021/05/24 09:26:05;;;;;;;3.60;0.72;;;;;;;21.61;52.11;101295.89;1632044;86;21136;-63
2021/05/24 09:28:40;;;;;;;3.30;0.75;;;;;;;21.57;52.65;101295.23;1671794;84;21161;-63
2021/05/24 09:31:15;;;;;;;;;;;;;;;21.65;52.46;101298.80;1673484;84;21147;-62
2021/05/24 09:33:53;;;;;;;6.28;0.95;;;;;;;21.69;51.61;101303.05;1671653;83;20303;-62
2021/05/24 09:36:21;;;;;;;1.45;0.65;;;;;;;21.71;52.40;101302.44;1665084;84;21446;-64
2021/05/24 09:38:53;;;;;;;1.72;0.90;;;;;;;21.72;51.94;101278.25;1662515;84;21508;-62
2021/05/24 09:41:22;;;;;;;5.12;0.85;;;;;;;21.66;51.24;101285.54;1680686;83;21727;-61
2021/05/24 09:43:53;;;;;;;6.05;0.90;;;;;;;21.58;49.60;101281.98;1650599;84;21295;-61
2021/05/24 09:46:29;;;;;;;2.40;0.60;;;;;;;21.53;48.90;101291.47;1683700;83;21057;-62
2021/05/24 09:49:03;;;;;;;9.05;0.70;;;;;;;21.47;48.80;101286.00;1681758;83;21163;-62
2021/05/24 09:51:29;;;;;;;3.60;0.72;;;;;;;21.39;49.58;101273.39;1643159;86;21093;-62
2021/05/24 09:54:06;;;;;;;6.03;0.80;;;;;;;21.33;50.78;101275.59;1664729;84;21579;-63
2021/05/24 09:56:35;;;;;;;2.20;0.60;;;;;;;21.35;50.42;101293.70;1647883;86;21527;-62
2021/05/24 09:59:16;;;;;;;6.42;0.82;;;;;;;21.41;51.33;101283.69;1646714;85;21543;-62
2021/05/24 10:01:53;;;;;;;1.55;0.70;;;;;;;21.43;51.73;101296.25;1689643;82;21500;-63
2021/05/24 10:04:23;;;;;;;10.78;0.95;;;;;;;21.41;51.69;101280.49;1687081;83;21109;-62
2021/05/24 10:06:50;;;;;;;3.67;0.72;;;;;;;21.35;51.94;101280.05;1641370;85;21675;-62
2021/05/24 10:09:18;;;;;;;8.20;1.00;;;;;;;21.31;52.13;101265.77;1702673;83;21301;-62
2021/05/24 10:11:47;;;;;;;3.45;0.80;;;;;;;21.26;52.75;101258.41;1706901;83;20971;-65
2021/05/24 10:14:17;;;;;;;3.80;1.10;;;;;;;21.24;52.95;101300.81;1678395;84;21054;-65
2021/05/24 10:16:50;;;;;;;2.37;0.80;;;;;;;21.21;52.94;101275.61;1709825;83;20964;-66
2021/05/24 10:19:19;;;;;;;3.10;0.90;;;;;;;21.21;53.62;101316.50;1681427;84;21492;-63
2021/05/24 10:21:48;;;;;;;4.42;1.00;;;;;;;21.25;52.54;101294.37;1704147;83;21068;-61
2021/05/24 10:24:15;;;;;;;1.98;1.17;;;;;;;21.22;52.41;101301.89;1676186;84;20964;-63
2021/05/24 10:26:43;;;;;;;4.22;0.90;;;;;;;21.18;52.10;101287.12;1667721;84;21088;-63
2021/05/24 10:29:11;;;;;;;1.87;1.07;;;;;;;21.26;52.31;101295.23;1678320;84;21575;-64
2021/05/24 10:31:40;;;;;;;3.90;1.32;;;;;;;21.34;52.60;101309.20;1704110;82;21142;-62
2021/05/24 10:34:18;;;;;;;4.10;1.00;;;;;;;21.36;50.41;101319.98;1666602;84;20963;-62
2021/05/24 10:36:46;;;;;;;2.65;0.90;;;;;;;21.24;48.54;101310.35;1651500;85;20968;-62
2021/05/24 10:39:18;;;;;;;3.83;0.80;;;;;;;21.16;50.11;101297.73;1716039;83;21137;-64
2021/05/24 10:41:58;;;;;;;2.95;0.80;;;;;;;21.17;50.28;101300.84;1697365;83;21069;-63
2021/05/24 10:44:40;;;;;;;7.20;0.93;;;;;;;21.16;51.33;101306.80;1696699;83;21166;-63
2021/05/24 10:47:18;;;;;;;2.12;0.80;;;;;;;21.25;50.70;101305.28;1696102;83;21033;-61
2021/05/24 10:50:07;;;;;;;3.50;1.02;;;;;;;21.38;50.34;101291.63;1691075;83;21423;-62
2021/05/24 10:52:41;;;;;;;6.97;0.90;;;;;;;21.46;49.73;101285.11;1695728;83;21658;-63
2021/05/24 10:55:30;;;;;;;2.40;0.98;;;;;;;21.57;50.30;101301.20;1643202;84;21032;-63
2021/05/24 10:58:05;;;;;;;4.40;0.90;;;;;;;21.73;49.73;101297.73;1702412;83;21205;-64
2021/05/24 11:01:03;;;;;;;10.72;1.20;;;;;;;21.92;49.48;101300.47;1693491;83;21194;-63
2021/05/24 11:03:29;;;;;;;2.70;0.70;;;;;;;22.12;49.35;101297.63;1648416;85;21037;-63
2021/05/24 11:06:15;;;;;;;2.25;1.00;;;;;;;22.32;48.85;101312.48;1689072;83;21097;-63
2021/05/24 11:08:53;;;;;;;5.85;0.80;;;;;;;22.45;48.98;101268.70;1675046;83;21087;-63
2021/05/24 11:11:26;;;;;;;6.22;1.10;;;;;;;22.59;47.55;101296.34;1633411;85;21542;-64
2021/05/24 11:14:04;;;;;;;10.25;1.47;;;;;;;22.69;46.85;101307.44;1653309;85;21172;-65
2021/05/24 11:16:29;;;;;;;1.85;0.93;;;;;;;22.77;46.98;101316.41;1655780;85;21472;-63
2021/05/24 11:19:15;;;;;;;2.85;1.22;;;;;;;;;;1646071;85;21148;-63
2021/05/24 11:21:56;;;;;;;5.65;1.30;;;;;;;22.54;48.05;101336.83;1642776;85;21095;-62
2021/05/24 11:24:41;;;;;;;1.47;1.30;;;;;;;22.29;49.32;101329.59;1632377;86;21172;-65
2021/05/24 11:27:15;;;;;;;3.20;1.20;;;;;;;22.08;49.11;101323.90;1654897;85;21219;-63
2021/05/24 11:29:48;;;;;;;2.50;1.17;;;;;;;21.88;50.38;101320.80;1640054;85;21140;-65